sensor_id;sensor_type;location;lat;lon;timestamp;temperature;humidity
15107;DHT22;7654;45.308;-75.096;2022-12-05T00:00:40;0.20;99.90
15107;DHT22;7654;45.308;-75.096;2022-12-05T00:03:10;0.10;99.90
15107;DHT22;7654;45.308;-75.096;2022-12-05T00:05:42;0.10;99.90
15107;DHT22;7654;45.308;-75.096;2022-12-05T00:08:12;0.10;99.90
15107;DHT22;7654;45.308;-75.096;2022-12-05T00:10:42;0.10;99.90
15107;DHT22;7654;45.308;-75.096;2022-12-05T00:13:13;0.10;99.90
15107;DHT22;7654;45.308;-75.096;2022-12-05T00:15:43;0.10;99.90
15107;DHT22;7654;45.308;-75.096;2022-12-05T00:18:13;0.20;99.90
15107;DHT22;7654;45.308;-75.096;2022-12-05T00:20:47;0.10;99.90
15107;DHT22;7654;45.308;-75.096;2022-12-05T00:23:17;0.10;99.90
15107;DHT22;7654;45.308;-75.096;2022-12-05T00:25:47;0.10;99.90
15107;DHT22;7654;45.308;-75.096;2022-12-05T00:28:18;0.10;99.90
15107;DHT22;7654;45.308;-75.096;2022-12-05T00:30:48;0.10;99.90
15107;DHT22;7654;45.308;-75.096;2022-12-05T00:33:18;0.10;99.90
15107;DHT22;7654;45.308;-75.096;2022-12-05T00:35:50;0.10;99.90
15107;DHT22;7654;45.308;-75.096;2022-12-05T00:38:20;0.10;99.90
15107;DHT22;7654;45.308;-75.096;2022-12-05T00:40:50;0.10;99.90
15107;DHT22;7654;45.308;-75.096;2022-12-05T00:43:20;0.20;99.90
15107;DHT22;7654;45.308;-75.096;2022-12-05T00:45:50;0.20;99.90
15107;DHT22;7654;45.308;-75.096;2022-12-05T00:48:20;0.20;99.90
15107;DHT22;7654;45.308;-75.096;2022-12-05T00:50:59;0.10;99.90
15107;DHT22;7654;45.308;-75.096;2022-12-05T00:53:30;0.20;99.90
15107;DHT22;7654;45.308;-75.096;2022-12-05T00:56:01;0.20;99.90
15107;DHT22;7654;45.308;-75.096;2022-12-05T00:58:32;0.20;99.90
15107;DHT22;7654;45.308;-75.096;2022-12-05T01:01:05;0.20;99.90
15107;DHT22;7654;45.308;-75.096;2022-12-05T01:03:36;0.20;99.90
15107;DHT22;7654;45.308;-75.096;2022-12-05T01:06:09;0.20;99.90
15107;DHT22;7654;45.308;-75.096;2022-12-05T01:08:39;0.20;99.90
15107;DHT22;7654;45.308;-75.096;2022-12-05T01:11:11;0.20;99.90
15107;DHT22;7654;45.308;-75.096;2022-12-05T01:13:44;0.20;99.90
15107;DHT22;7654;45.308;-75.096;2022-12-05T01:16:17;0.20;99.90
15107;DHT22;7654;45.308;-75.096;2022-12-05T01:18:49;0.10;99.90
15107;DHT22;7654;45.308;-75.096;2022-12-05T01:21:21;0.10;99.90
15107;DHT22;7654;45.308;-75.096;2022-12-05T01:23:52;0.10;99.90
15107;DHT22;7654;45.308;-75.096;2022-12-05T01:26:22;0.00;99.90
15107;DHT22;7654;45.308;-75.096;2022-12-05T01:28:53;0.00;99.90
15107;DHT22;7654;45.308;-75.096;2022-12-05T01:31:25;-0.10;99.90
15107;DHT22;7654;45.308;-75.096;2022-12-05T01:33:58;-0.10;99.90
15107;DHT22;7654;45.308;-75.096;2022-12-05T01:36:30;-0.20;99.90
15107;DHT22;7654;45.308;-75.096;2022-12-05T01:39:01;-0.30;99.90
15107;DHT22;7654;45.308;-75.096;2022-12-05T01:41:34;-0.50;99.90
15107;DHT22;7654;45.308;-75.096;2022-12-05T01:44:06;-0.60;99.90
15107;DHT22;7654;45.308;-75.096;2022-12-05T01:46:39;-0.80;99.90
15107;DHT22;7654;45.308;-75.096;2022-12-05T01:49:14;-1.00;99.90
15107;DHT22;7654;45.308;-75.096;2022-12-05T01:51:49;-1.20;99.90
15107;DHT22;7654;45.308;-75.096;2022-12-05T01:54:21;-1.30;99.90
15107;DHT22;7654;45.308;-75.096;2022-12-05T01:56:54;-1.50;99.90
15107;DHT22;7654;45.308;-75.096;2022-12-05T01:59:27;-1.50;99.90
15107;DHT22;7654;45.308;-75.096;2022-12-05T02:01:58;-1.60;99.90
15107;DHT22;7654;45.308;-75.096;2022-12-05T02:04:29;-1.60;99.90
15107;DHT22;7654;45.308;-75.096;2022-12-05T02:07:01;-1.60;99.90
15107;DHT22;7654;45.308;-75.096;2022-12-05T02:09:31;-1.60;99.90
15107;DHT22;7654;45.308;-75.096;2022-12-05T02:12:02;-1.60;99.90
15107;DHT22;7654;45.308;-75.096;2022-12-05T02:14:40;-1.60;99.90
15107;DHT22;7654;45.308;-75.096;2022-12-05T02:17:21;-1.50;99.90
15107;DHT22;7654;45.308;-75.096;2022-12-05T02:20:09;-1.50;99.90
15107;DHT22;7654;45.308;-75.096;2022-12-05T02:26:16;-1.40;99.90
15107;DHT22;7654;45.308;-75.096;2022-12-05T02:29:08;-1.50;99.90
15107;DHT22;7654;45.308;-75.096;2022-12-05T02:31:48;-1.40;99.90
15107;DHT22;7654;45.308;-75.096;2022-12-05T02:34:25;-1.40;99.90
15107;DHT22;7654;45.308;-75.096;2022-12-05T02:36:59;-1.40;99.90
15107;DHT22;7654;45.308;-75.096;2022-12-05T02:39:36;-1.40;99.90
15107;DHT22;7654;45.308;-75.096;2022-12-05T02:42:14;-1.40;99.90
15107;DHT22;7654;45.308;-75.096;2022-12-05T02:44:46;-1.40;99.90
15107;DHT22;7654;45.308;-75.096;2022-12-05T02:47:24;-1.30;99.90
15107;DHT22;7654;45.308;-75.096;2022-12-05T02:49:56;-1.20;99.90
15107;DHT22;7654;45.308;-75.096;2022-12-05T02:52:27;-1.20;99.90
15107;DHT22;7654;45.308;-75.096;2022-12-05T02:54:59;-1.10;99.90
15107;DHT22;7654;45.308;-75.096;2022-12-05T02:57:31;-1.00;99.90
15107;DHT22;7654;45.308;-75.096;2022-12-05T03:00:01;-1.00;99.90
15107;DHT22;7654;45.308;-75.096;2022-12-05T03:02:33;-0.90;99.90
15107;DHT22;7654;45.308;-75.096;2022-12-05T03:05:12;-0.90;99.90
15107;DHT22;7654;45.308;-75.096;2022-12-05T03:07:46;-0.90;99.90
15107;DHT22;7654;45.308;-75.096;2022-12-05T03:10:21;-0.70;99.90
15107;DHT22;7654;45.308;-75.096;2022-12-05T03:12:56;-0.60;99.90
15107;DHT22;7654;45.308;-75.096;2022-12-05T03:15:32;-0.60;99.90
15107;DHT22;7654;45.308;-75.096;2022-12-05T03:18:08;-0.50;99.90
15107;DHT22;7654;45.308;-75.096;2022-12-05T03:20:44;-0.30;99.90
15107;DHT22;7654;45.308;-75.096;2022-12-05T03:23:19;-0.30;99.90
15107;DHT22;7654;45.308;-75.096;2022-12-05T03:25:53;-0.20;99.90
15107;DHT22;7654;45.308;-75.096;2022-12-05T03:28:27;-0.20;99.90
15107;DHT22;7654;45.308;-75.096;2022-12-05T03:31:07;-0.10;99.90
15107;DHT22;7654;45.308;-75.096;2022-12-05T03:33:43;0.00;99.90
15107;DHT22;7654;45.308;-75.096;2022-12-05T03:36:17;0.10;99.90
15107;DHT22;7654;45.308;-75.096;2022-12-05T03:38:51;0.20;99.90
15107;DHT22;7654;45.308;-75.096;2022-12-05T03:41:27;0.30;99.90
15107;DHT22;7654;45.308;-75.096;2022-12-05T03:44:05;0.40;99.90
15107;DHT22;7654;45.308;-75.096;2022-12-05T03:46:39;0.50;99.90
15107;DHT22;7654;45.308;-75.096;2022-12-05T03:49:18;0.50;99.90
15107;DHT22;7654;45.308;-75.096;2022-12-05T03:51:54;0.60;99.90
15107;DHT22;7654;45.308;-75.096;2022-12-05T03:54:27;0.70;99.90
15107;DHT22;7654;45.308;-75.096;2022-12-05T03:57:01;0.80;99.90
15107;DHT22;7654;45.308;-75.096;2022-12-05T03:59:36;0.80;99.90
15107;DHT22;7654;45.308;-75.096;2022-12-05T04:02:09;0.80;99.90
15107;DHT22;7654;45.308;-75.096;2022-12-05T04:04:47;0.80;99.90
15107;DHT22;7654;45.308;-75.096;2022-12-05T04:07:20;0.90;99.90
15107;DHT22;7654;45.308;-75.096;2022-12-05T04:09:54;0.90;99.90
15107;DHT22;7654;45.308;-75.096;2022-12-05T04:12:27;0.90;99.90
15107;DHT22;7654;45.308;-75.096;2022-12-05T04:15:01;1.00;99.90
15107;DHT22;7654;45.308;-75.096;2022-12-05T04:17:39;1.00;99.90
15107;DHT22;7654;45.308;-75.096;2022-12-05T04:20:13;1.00;99.90
15107;DHT22;7654;45.308;-75.096;2022-12-05T04:23:01;1.00;99.90
15107;DHT22;7654;45.308;-75.096;2022-12-05T04:25:41;0.90;99.90
15107;DHT22;7654;45.308;-75.096;2022-12-05T04:28:22;0.80;99.90
15107;DHT22;7654;45.308;-75.096;2022-12-05T04:31:00;0.80;99.90
15107;DHT22;7654;45.308;-75.096;2022-12-05T04:33:39;0.80;99.90
15107;DHT22;7654;45.308;-75.096;2022-12-05T04:36:15;0.80;99.90
15107;DHT22;7654;45.308;-75.096;2022-12-05T04:38:50;0.70;99.90
15107;DHT22;7654;45.308;-75.096;2022-12-05T04:41:24;0.70;99.90
15107;DHT22;7654;45.308;-75.096;2022-12-05T04:43:57;0.60;99.90
15107;DHT22;7654;45.308;-75.096;2022-12-05T04:46:29;0.60;99.90
15107;DHT22;7654;45.308;-75.096;2022-12-05T04:49:00;0.70;99.90
15107;DHT22;7654;45.308;-75.096;2022-12-05T04:51:35;0.60;99.90
15107;DHT22;7654;45.308;-75.096;2022-12-05T04:54:10;0.60;99.90
15107;DHT22;7654;45.308;-75.096;2022-12-05T04:56:43;0.50;99.90
15107;DHT22;7654;45.308;-75.096;2022-12-05T04:59:14;0.40;99.90
15107;DHT22;7654;45.308;-75.096;2022-12-05T05:01:49;0.40;99.90
15107;DHT22;7654;45.308;-75.096;2022-12-05T05:04:26;0.40;99.90
15107;DHT22;7654;45.308;-75.096;2022-12-05T05:07:03;0.30;99.90
15107;DHT22;7654;45.308;-75.096;2022-12-05T05:09:33;0.30;99.90
15107;DHT22;7654;45.308;-75.096;2022-12-05T05:12:04;0.20;99.90
15107;DHT22;7654;45.308;-75.096;2022-12-05T05:14:39;0.10;99.90
15107;DHT22;7654;45.308;-75.096;2022-12-05T05:17:09;0.00;99.90
15107;DHT22;7654;45.308;-75.096;2022-12-05T05:19:39;-0.10;99.90
15107;DHT22;7654;45.308;-75.096;2022-12-05T05:22:11;-0.10;99.90
15107;DHT22;7654;45.308;-75.096;2022-12-05T05:24:42;-0.20;99.90
15107;DHT22;7654;45.308;-75.096;2022-12-05T05:27:12;-0.30;99.90
15107;DHT22;7654;45.308;-75.096;2022-12-05T05:29:42;-0.30;99.90
15107;DHT22;7654;45.308;-75.096;2022-12-05T05:32:12;-0.30;99.90
15107;DHT22;7654;45.308;-75.096;2022-12-05T05:34:42;-0.30;99.90
15107;DHT22;7654;45.308;-75.096;2022-12-05T05:37:14;-0.40;99.90
15107;DHT22;7654;45.308;-75.096;2022-12-05T05:39:44;-0.50;99.90
15107;DHT22;7654;45.308;-75.096;2022-12-05T05:42:14;-0.60;99.90
15107;DHT22;7654;45.308;-75.096;2022-12-05T05:44:45;-0.60;99.90
15107;DHT22;7654;45.308;-75.096;2022-12-05T05:47:14;-0.60;99.90
15107;DHT22;7654;45.308;-75.096;2022-12-05T05:49:45;-0.70;99.90
15107;DHT22;7654;45.308;-75.096;2022-12-05T05:52:17;-0.70;99.90
15107;DHT22;7654;45.308;-75.096;2022-12-05T05:54:47;-0.70;99.90
15107;DHT22;7654;45.308;-75.096;2022-12-05T05:57:17;-0.60;99.90
15107;DHT22;7654;45.308;-75.096;2022-12-05T05:59:47;-0.60;99.90
15107;DHT22;7654;45.308;-75.096;2022-12-05T06:02:17;-0.50;99.90
15107;DHT22;7654;45.308;-75.096;2022-12-05T06:04:47;-0.50;99.90
15107;DHT22;7654;45.308;-75.096;2022-12-05T06:07:19;-0.50;99.90
15107;DHT22;7654;45.308;-75.096;2022-12-05T06:09:49;-0.50;99.90
15107;DHT22;7654;45.308;-75.096;2022-12-05T06:12:20;-0.40;99.90
15107;DHT22;7654;45.308;-75.096;2022-12-05T06:14:51;-0.50;99.90
15107;DHT22;7654;45.308;-75.096;2022-12-05T06:17:21;-0.50;99.90
15107;DHT22;7654;45.308;-75.096;2022-12-05T06:19:51;-0.40;99.90
15107;DHT22;7654;45.308;-75.096;2022-12-05T06:22:23;-0.40;99.90
15107;DHT22;7654;45.308;-75.096;2022-12-05T06:24:53;-0.40;99.90
15107;DHT22;7654;45.308;-75.096;2022-12-05T06:27:24;-0.30;99.90
15107;DHT22;7654;45.308;-75.096;2022-12-05T06:29:54;-0.20;99.90
15107;DHT22;7654;45.308;-75.096;2022-12-05T06:32:26;-0.20;99.90
15107;DHT22;7654;45.308;-75.096;2022-12-05T06:34:56;-0.20;99.90
15107;DHT22;7654;45.308;-75.096;2022-12-05T06:37:28;-0.10;99.90
15107;DHT22;7654;45.308;-75.096;2022-12-05T06:39:58;0.00;99.90
15107;DHT22;7654;45.308;-75.096;2022-12-05T06:42:28;0.00;99.90
15107;DHT22;7654;45.308;-75.096;2022-12-05T06:45:00;0.10;99.90
15107;DHT22;7654;45.308;-75.096;2022-12-05T06:47:30;0.10;99.90
15107;DHT22;7654;45.308;-75.096;2022-12-05T06:50:00;0.10;99.90
15107;DHT22;7654;45.308;-75.096;2022-12-05T06:52:33;0.00;99.90
15107;DHT22;7654;45.308;-75.096;2022-12-05T06:55:03;0.00;99.90
15107;DHT22;7654;45.308;-75.096;2022-12-05T06:57:34;0.00;99.90
15107;DHT22;7654;45.308;-75.096;2022-12-05T07:00:05;0.00;99.90
15107;DHT22;7654;45.308;-75.096;2022-12-05T07:02:53;0.00;99.90
15107;DHT22;7654;45.308;-75.096;2022-12-05T07:05:23;0.10;99.90
15107;DHT22;7654;45.308;-75.096;2022-12-05T07:07:55;0.10;99.90
15107;DHT22;7654;45.308;-75.096;2022-12-05T07:10:25;0.10;99.90
15107;DHT22;7654;45.308;-75.096;2022-12-05T07:12:56;0.10;99.90
15107;DHT22;7654;45.308;-75.096;2022-12-05T07:15:26;0.20;99.90
15107;DHT22;7654;45.308;-75.096;2022-12-05T07:17:56;0.20;99.90
15107;DHT22;7654;45.308;-75.096;2022-12-05T07:20:26;0.20;99.90
15107;DHT22;7654;45.308;-75.096;2022-12-05T07:23:18;0.10;99.90
15107;DHT22;7654;45.308;-75.096;2022-12-05T07:25:48;0.20;99.90
15107;DHT22;7654;45.308;-75.096;2022-12-05T07:28:19;0.20;99.90
15107;DHT22;7654;45.308;-75.096;2022-12-05T07:30:57;0.20;99.90
15107;DHT22;7654;45.308;-75.096;2022-12-05T07:33:28;0.20;99.90
15107;DHT22;7654;45.308;-75.096;2022-12-05T07:35:59;0.30;99.90
15107;DHT22;7654;45.308;-75.096;2022-12-05T07:38:31;0.30;99.90
15107;DHT22;7654;45.308;-75.096;2022-12-05T07:41:04;0.30;99.90
15107;DHT22;7654;45.308;-75.096;2022-12-05T07:43:40;0.30;99.90
15107;DHT22;7654;45.308;-75.096;2022-12-05T07:46:10;0.40;99.90
15107;DHT22;7654;45.308;-75.096;2022-12-05T07:48:40;0.30;99.90
15107;DHT22;7654;45.308;-75.096;2022-12-05T07:51:10;0.30;99.90
15107;DHT22;7654;45.308;-75.096;2022-12-05T07:53:42;0.30;99.90
15107;DHT22;7654;45.308;-75.096;2022-12-05T07:56:14;0.30;99.90
15107;DHT22;7654;45.308;-75.096;2022-12-05T07:58:46;0.30;99.90
15107;DHT22;7654;45.308;-75.096;2022-12-05T08:01:18;0.40;99.90
15107;DHT22;7654;45.308;-75.096;2022-12-05T08:03:49;0.40;99.90
15107;DHT22;7654;45.308;-75.096;2022-12-05T08:06:23;0.40;99.90
15107;DHT22;7654;45.308;-75.096;2022-12-05T08:08:56;0.50;99.90
15107;DHT22;7654;45.308;-75.096;2022-12-05T08:11:29;0.50;99.90
15107;DHT22;7654;45.308;-75.096;2022-12-05T08:14:04;0.50;99.90
15107;DHT22;7654;45.308;-75.096;2022-12-05T08:16:35;0.40;99.90
15107;DHT22;7654;45.308;-75.096;2022-12-05T08:19:07;0.40;99.90
15107;DHT22;7654;45.308;-75.096;2022-12-05T08:21:40;0.40;99.90
15107;DHT22;7654;45.308;-75.096;2022-12-05T08:24:12;0.40;99.90
15107;DHT22;7654;45.308;-75.096;2022-12-05T08:26:42;0.40;99.90
15107;DHT22;7654;45.308;-75.096;2022-12-05T08:29:14;0.40;99.90
15107;DHT22;7654;45.308;-75.096;2022-12-05T08:31:47;0.40;99.90
15107;DHT22;7654;45.308;-75.096;2022-12-05T08:34:18;0.40;99.90
15107;DHT22;7654;45.308;-75.096;2022-12-05T08:36:49;0.40;99.90
15107;DHT22;7654;45.308;-75.096;2022-12-05T08:39:21;0.50;99.90
15107;DHT22;7654;45.308;-75.096;2022-12-05T08:41:51;0.50;99.90
15107;DHT22;7654;45.308;-75.096;2022-12-05T08:44:22;0.50;99.90
15107;DHT22;7654;45.308;-75.096;2022-12-05T08:46:52;0.60;99.90
15107;DHT22;7654;45.308;-75.096;2022-12-05T08:49:22;0.60;99.90
15107;DHT22;7654;45.308;-75.096;2022-12-05T08:51:52;0.70;99.90
15107;DHT22;7654;45.308;-75.096;2022-12-05T08:54:24;0.60;99.90
15107;DHT22;7654;45.308;-75.096;2022-12-05T08:56:54;0.70;99.90
15107;DHT22;7654;45.308;-75.096;2022-12-05T08:59:24;0.70;99.90
15107;DHT22;7654;45.308;-75.096;2022-12-05T09:01:54;0.70;99.90
15107;DHT22;7654;45.308;-75.096;2022-12-05T09:04:25;0.70;99.90
15107;DHT22;7654;45.308;-75.096;2022-12-05T09:06:55;0.70;99.90
15107;DHT22;7654;45.308;-75.096;2022-12-05T09:09:26;0.70;99.90
15107;DHT22;7654;45.308;-75.096;2022-12-05T09:11:56;0.70;99.90
15107;DHT22;7654;45.308;-75.096;2022-12-05T09:14:27;0.70;99.90
15107;DHT22;7654;45.308;-75.096;2022-12-05T09:17:00;0.60;99.90
15107;DHT22;7654;45.308;-75.096;2022-12-05T09:19:31;0.60;99.90
15107;DHT22;7654;45.308;-75.096;2022-12-05T09:22:01;0.50;99.90
15107;DHT22;7654;45.308;-75.096;2022-12-05T09:24:33;0.50;99.90
15107;DHT22;7654;45.308;-75.096;2022-12-05T09:27:03;0.40;99.90
15107;DHT22;7654;45.308;-75.096;2022-12-05T09:29:33;0.40;99.90
15107;DHT22;7654;45.308;-75.096;2022-12-05T09:32:03;0.40;99.90
15107;DHT22;7654;45.308;-75.096;2022-12-05T09:34:33;0.40;99.90
15107;DHT22;7654;45.308;-75.096;2022-12-05T09:37:05;0.30;99.90
15107;DHT22;7654;45.308;-75.096;2022-12-05T09:39:57;0.30;99.90
15107;DHT22;7654;45.308;-75.096;2022-12-05T09:42:37;0.30;99.90
15107;DHT22;7654;45.308;-75.096;2022-12-05T09:45:20;0.30;99.90
15107;DHT22;7654;45.308;-75.096;2022-12-05T09:47:55;0.40;99.90
15107;DHT22;7654;45.308;-75.096;2022-12-05T09:50:28;0.30;99.90
15107;DHT22;7654;45.308;-75.096;2022-12-05T09:53:04;0.30;99.90
15107;DHT22;7654;45.308;-75.096;2022-12-05T09:55:43;0.30;99.90
15107;DHT22;7654;45.308;-75.096;2022-12-05T09:58:39;0.20;99.90
15107;DHT22;7654;45.308;-75.096;2022-12-05T10:01:26;0.20;99.90
15107;DHT22;7654;45.308;-75.096;2022-12-05T10:04:06;0.10;99.90
15107;DHT22;7654;45.308;-75.096;2022-12-05T10:06:46;0.10;99.90
15107;DHT22;7654;45.308;-75.096;2022-12-05T10:09:31;0.00;99.90
15107;DHT22;7654;45.308;-75.096;2022-12-05T10:12:13;0.00;99.90
15107;DHT22;7654;45.308;-75.096;2022-12-05T10:14:51;-0.10;99.90
15107;DHT22;7654;45.308;-75.096;2022-12-05T10:17:27;0.00;99.90
15107;DHT22;7654;45.308;-75.096;2022-12-05T10:20:02;0.00;99.90
15107;DHT22;7654;45.308;-75.096;2022-12-05T10:22:40;0.00;99.90
15107;DHT22;7654;45.308;-75.096;2022-12-05T10:25:15;0.10;99.90
15107;DHT22;7654;45.308;-75.096;2022-12-05T10:27:50;0.10;99.90
15107;DHT22;7654;45.308;-75.096;2022-12-05T10:30:21;0.10;99.90
15107;DHT22;7654;45.308;-75.096;2022-12-05T10:32:54;0.20;99.90
15107;DHT22;7654;45.308;-75.096;2022-12-05T10:35:26;0.30;99.90
15107;DHT22;7654;45.308;-75.096;2022-12-05T10:37:58;0.30;99.90
15107;DHT22;7654;45.308;-75.096;2022-12-05T10:40:33;0.40;99.90
15107;DHT22;7654;45.308;-75.096;2022-12-05T10:43:07;0.40;99.90
15107;DHT22;7654;45.308;-75.096;2022-12-05T10:45:41;0.40;99.90
15107;DHT22;7654;45.308;-75.096;2022-12-05T10:48:13;0.40;99.90
15107;DHT22;7654;45.308;-75.096;2022-12-05T10:50:46;0.40;99.90
15107;DHT22;7654;45.308;-75.096;2022-12-05T10:53:18;0.40;99.90
15107;DHT22;7654;45.308;-75.096;2022-12-05T10:55:50;0.40;99.90
15107;DHT22;7654;45.308;-75.096;2022-12-05T10:58:53;0.30;99.90
15107;DHT22;7654;45.308;-75.096;2022-12-05T11:01:25;0.30;99.90
15107;DHT22;7654;45.308;-75.096;2022-12-05T11:03:58;0.20;99.90
15107;DHT22;7654;45.308;-75.096;2022-12-05T11:06:30;0.20;99.90
15107;DHT22;7654;45.308;-75.096;2022-12-05T11:09:11;0.20;99.90
15107;DHT22;7654;45.308;-75.096;2022-12-05T11:11:55;0.20;99.90
15107;DHT22;7654;45.308;-75.096;2022-12-05T11:14:28;0.20;99.90
15107;DHT22;7654;45.308;-75.096;2022-12-05T11:17:01;0.10;99.90
15107;DHT22;7654;45.308;-75.096;2022-12-05T11:19:33;0.10;99.90
15107;DHT22;7654;45.308;-75.096;2022-12-05T11:22:04;0.00;99.90
15107;DHT22;7654;45.308;-75.096;2022-12-05T11:24:36;0.00;99.90
15107;DHT22;7654;45.308;-75.096;2022-12-05T11:27:20;0.00;99.90
15107;DHT22;7654;45.308;-75.096;2022-12-05T11:29:58;-0.10;99.90
15107;DHT22;7654;45.308;-75.096;2022-12-05T11:32:30;-0.10;99.90
15107;DHT22;7654;45.308;-75.096;2022-12-05T11:35:15;0.00;99.90
15107;DHT22;7654;45.308;-75.096;2022-12-05T11:37:51;0.10;99.90
15107;DHT22;7654;45.308;-75.096;2022-12-05T11:40:29;0.10;99.90
15107;DHT22;7654;45.308;-75.096;2022-12-05T11:43:26;0.10;99.90
15107;DHT22;7654;45.308;-75.096;2022-12-05T11:46:08;0.10;99.90
15107;DHT22;7654;45.308;-75.096;2022-12-05T11:48:53;0.00;99.90
15107;DHT22;7654;45.308;-75.096;2022-12-05T11:51:37;0.00;99.90
15107;DHT22;7654;45.308;-75.096;2022-12-05T11:54:25;0.10;99.90
15107;DHT22;7654;45.308;-75.096;2022-12-05T11:57:29;0.10;99.90
15107;DHT22;7654;45.308;-75.096;2022-12-05T12:00:18;0.10;99.90
15107;DHT22;7654;45.308;-75.096;2022-12-05T12:06:18;0.10;99.90
15107;DHT22;7654;45.308;-75.096;2022-12-05T12:09:01;0.10;99.90
15107;DHT22;7654;45.308;-75.096;2022-12-05T12:11:40;0.00;99.90
15107;DHT22;7654;45.308;-75.096;2022-12-05T12:14:18;0.00;99.90
15107;DHT22;7654;45.308;-75.096;2022-12-05T12:16:57;0.00;99.90
15107;DHT22;7654;45.308;-75.096;2022-12-05T12:19:51;0.00;99.90
15107;DHT22;7654;45.308;-75.096;2022-12-05T12:22:37;-0.10;99.90
15107;DHT22;7654;45.308;-75.096;2022-12-05T12:25:23;0.00;99.90
15107;DHT22;7654;45.308;-75.096;2022-12-05T12:28:03;0.00;99.90
15107;DHT22;7654;45.308;-75.096;2022-12-05T12:30:50;0.00;99.90
15107;DHT22;7654;45.308;-75.096;2022-12-05T12:33:29;-0.10;99.90
15107;DHT22;7654;45.308;-75.096;2022-12-05T12:36:11;-0.10;99.90
15107;DHT22;7654;45.308;-75.096;2022-12-05T12:45:05;0.00;99.90
15107;DHT22;7654;45.308;-75.096;2022-12-05T12:47:53;0.00;99.90
15107;DHT22;7654;45.308;-75.096;2022-12-05T12:50:29;0.00;99.90
15107;DHT22;7654;45.308;-75.096;2022-12-05T12:53:30;0.00;99.90
15107;DHT22;7654;45.308;-75.096;2022-12-05T12:56:12;0.00;99.90
15107;DHT22;7654;45.308;-75.096;2022-12-05T12:58:50;0.10;99.90
15107;DHT22;7654;45.308;-75.096;2022-12-05T13:01:30;0.10;99.90
15107;DHT22;7654;45.308;-75.096;2022-12-05T13:04:05;0.10;99.90
15107;DHT22;7654;45.308;-75.096;2022-12-05T13:06:42;0.20;99.90
15107;DHT22;7654;45.308;-75.096;2022-12-05T13:09:20;0.20;99.90
15107;DHT22;7654;45.308;-75.096;2022-12-05T13:11:53;0.20;99.90
15107;DHT22;7654;45.308;-75.096;2022-12-05T13:14:25;0.20;99.90
15107;DHT22;7654;45.308;-75.096;2022-12-05T13:16:58;0.30;99.90
15107;DHT22;7654;45.308;-75.096;2022-12-05T13:19:30;0.30;99.90
15107;DHT22;7654;45.308;-75.096;2022-12-05T13:22:06;0.30;99.90
15107;DHT22;7654;45.308;-75.096;2022-12-05T13:24:38;0.30;99.90
15107;DHT22;7654;45.308;-75.096;2022-12-05T13:27:14;0.40;99.90
15107;DHT22;7654;45.308;-75.096;2022-12-05T13:29:49;0.40;99.90
15107;DHT22;7654;45.308;-75.096;2022-12-05T13:32:26;0.50;99.90
15107;DHT22;7654;45.308;-75.096;2022-12-05T13:35:00;0.50;99.90
15107;DHT22;7654;45.308;-75.096;2022-12-05T13:37:34;0.60;99.90
15107;DHT22;7654;45.308;-75.096;2022-12-05T13:40:25;0.60;99.90
15107;DHT22;7654;45.308;-75.096;2022-12-05T13:43:16;0.60;99.90
15107;DHT22;7654;45.308;-75.096;2022-12-05T13:46:01;0.70;99.90
15107;DHT22;7654;45.308;-75.096;2022-12-05T13:48:35;0.80;99.90
15107;DHT22;7654;45.308;-75.096;2022-12-05T13:51:08;0.80;99.90
15107;DHT22;7654;45.308;-75.096;2022-12-05T13:53:42;0.80;99.90
15107;DHT22;7654;45.308;-75.096;2022-12-05T13:56:27;0.90;99.90
15107;DHT22;7654;45.308;-75.096;2022-12-05T14:02:45;1.10;99.90
15107;DHT22;7654;45.308;-75.096;2022-12-05T14:05:50;1.10;99.90
15107;DHT22;7654;45.308;-75.096;2022-12-05T14:08:50;1.20;99.90
15107;DHT22;7654;45.308;-75.096;2022-12-05T14:11:21;1.30;99.90
15107;DHT22;7654;45.308;-75.096;2022-12-05T14:13:53;1.40;99.90
15107;DHT22;7654;45.308;-75.096;2022-12-05T14:16:42;1.40;99.90
15107;DHT22;7654;45.308;-75.096;2022-12-05T14:19:30;1.50;99.90
15107;DHT22;7654;45.308;-75.096;2022-12-05T14:22:19;1.60;99.90
15107;DHT22;7654;45.308;-75.096;2022-12-05T14:24:56;1.70;99.90
15107;DHT22;7654;45.308;-75.096;2022-12-05T14:27:42;1.80;99.90
15107;DHT22;7654;45.308;-75.096;2022-12-05T14:30:21;1.80;99.90
15107;DHT22;7654;45.308;-75.096;2022-12-05T14:32:53;1.90;99.90
15107;DHT22;7654;45.308;-75.096;2022-12-05T14:35:27;1.90;99.90
15107;DHT22;7654;45.308;-75.096;2022-12-05T14:38:00;1.90;99.90
15107;DHT22;7654;45.308;-75.096;2022-12-05T14:40:33;1.90;99.90
15107;DHT22;7654;45.308;-75.096;2022-12-05T14:43:06;2.00;99.90
15107;DHT22;7654;45.308;-75.096;2022-12-05T14:45:41;1.90;99.90
15107;DHT22;7654;45.308;-75.096;2022-12-05T14:48:26;1.90;99.90
15107;DHT22;7654;45.308;-75.096;2022-12-05T14:50:58;2.00;99.90
15107;DHT22;7654;45.308;-75.096;2022-12-05T14:53:34;2.10;99.90
15107;DHT22;7654;45.308;-75.096;2022-12-05T14:56:15;2.20;99.90
15107;DHT22;7654;45.308;-75.096;2022-12-05T14:58:50;2.20;99.90
15107;DHT22;7654;45.308;-75.096;2022-12-05T15:01:27;2.30;99.90
15107;DHT22;7654;45.308;-75.096;2022-12-05T15:04:07;2.30;99.90
15107;DHT22;7654;45.308;-75.096;2022-12-05T15:06:46;2.30;99.90
15107;DHT22;7654;45.308;-75.096;2022-12-05T15:09:36;2.30;99.90
15107;DHT22;7654;45.308;-75.096;2022-12-05T15:12:14;2.40;99.90
15107;DHT22;7654;45.308;-75.096;2022-12-05T15:14:51;2.50;99.90
15107;DHT22;7654;45.308;-75.096;2022-12-05T15:17:29;2.50;99.90
15107;DHT22;7654;45.308;-75.096;2022-12-05T15:20:04;2.50;99.90
15107;DHT22;7654;45.308;-75.096;2022-12-05T15:22:37;2.60;99.90
15107;DHT22;7654;45.308;-75.096;2022-12-05T15:25:21;2.60;99.90
15107;DHT22;7654;45.308;-75.096;2022-12-05T15:27:59;2.70;99.90
15107;DHT22;7654;45.308;-75.096;2022-12-05T15:30:31;2.70;99.90
15107;DHT22;7654;45.308;-75.096;2022-12-05T15:33:05;2.70;99.90
15107;DHT22;7654;45.308;-75.096;2022-12-05T15:35:40;2.90;99.90
15107;DHT22;7654;45.308;-75.096;2022-12-05T15:38:22;3.00;99.90
15107;DHT22;7654;45.308;-75.096;2022-12-05T15:40:54;3.10;99.90
15107;DHT22;7654;45.308;-75.096;2022-12-05T15:43:29;3.30;99.90
15107;DHT22;7654;45.308;-75.096;2022-12-05T15:46:07;3.50;99.90
15107;DHT22;7654;45.308;-75.096;2022-12-05T15:48:39;3.50;99.90
15107;DHT22;7654;45.308;-75.096;2022-12-05T15:51:09;3.60;99.90
15107;DHT22;7654;45.308;-75.096;2022-12-05T15:53:41;3.80;99.90
15107;DHT22;7654;45.308;-75.096;2022-12-05T15:56:16;3.90;99.90
15107;DHT22;7654;45.308;-75.096;2022-12-05T15:58:50;4.10;99.90
15107;DHT22;7654;45.308;-75.096;2022-12-05T16:01:22;4.20;99.90
15107;DHT22;7654;45.308;-75.096;2022-12-05T16:03:56;4.30;99.90
15107;DHT22;7654;45.308;-75.096;2022-12-05T16:06:28;4.50;99.90
15107;DHT22;7654;45.308;-75.096;2022-12-05T16:09:05;4.50;99.90
15107;DHT22;7654;45.308;-75.096;2022-12-05T16:11:38;4.60;99.90
15107;DHT22;7654;45.308;-75.096;2022-12-05T16:14:10;4.60;99.90
15107;DHT22;7654;45.308;-75.096;2022-12-05T16:17:02;4.60;99.90
15107;DHT22;7654;45.308;-75.096;2022-12-05T16:19:33;4.60;99.90
15107;DHT22;7654;45.308;-75.096;2022-12-05T16:22:07;4.40;99.90
15107;DHT22;7654;45.308;-75.096;2022-12-05T16:24:41;4.20;99.90
15107;DHT22;7654;45.308;-75.096;2022-12-05T16:27:14;4.10;99.90
15107;DHT22;7654;45.308;-75.096;2022-12-05T16:29:45;3.80;99.90
15107;DHT22;7654;45.308;-75.096;2022-12-05T16:32:20;3.70;99.90